sensor_id;sensor_type;location;lat;lon;timestamp;temperature;humidity
68051;DHT22;54839;51.364;7.246;2022-09-02T00:00:58;16.40;94.30
68051;DHT22;54839;51.364;7.246;2022-09-02T00:03:31;16.50;94.20
68051;DHT22;54839;51.364;7.246;2022-09-02T00:05:59;16.50;93.90
68051;DHT22;54839;51.364;7.246;2022-09-02T00:08:28;16.70;93.70
68051;DHT22;54839;51.364;7.246;2022-09-02T00:10:58;16.60;93.40
68051;DHT22;54839;51.364;7.246;2022-09-02T00:13:25;16.60;93.30
68051;DHT22;54839;51.364;7.246;2022-09-02T00:15:51;16.80;93.20
68051;DHT22;54839;51.364;7.246;2022-09-02T00:18:17;16.80;93.20
68051;DHT22;54839;51.364;7.246;2022-09-02T00:20:45;16.80;93.20
68051;DHT22;54839;51.364;7.246;2022-09-02T00:23:11;16.90;93.10
68051;DHT22;54839;51.364;7.246;2022-09-02T00:25:38;16.80;93.00
68051;DHT22;54839;51.364;7.246;2022-09-02T00:28:04;16.80;93.20
68051;DHT22;54839;51.364;7.246;2022-09-02T00:30:31;16.70;93.10
68051;DHT22;54839;51.364;7.246;2022-09-02T00:32:57;16.80;93.50
68051;DHT22;54839;51.364;7.246;2022-09-02T00:35:23;16.80;93.30
68051;DHT22;54839;51.364;7.246;2022-09-02T00:37:49;16.70;93.40
68051;DHT22;54839;51.364;7.246;2022-09-02T00:40:15;16.80;93.40
68051;DHT22;54839;51.364;7.246;2022-09-02T00:42:40;17.00;93.40
68051;DHT22;54839;51.364;7.246;2022-09-02T00:45:07;17.00;93.20
68051;DHT22;54839;51.364;7.246;2022-09-02T00:47:34;17.00;93.30
68051;DHT22;54839;51.364;7.246;2022-09-02T00:50:04;17.00;93.20
68051;DHT22;54839;51.364;7.246;2022-09-02T00:52:45;17.10;93.10
68051;DHT22;54839;51.364;7.246;2022-09-02T00:55:21;17.10;93.10
68051;DHT22;54839;51.364;7.246;2022-09-02T00:57:53;17.00;93.20
68051;DHT22;54839;51.364;7.246;2022-09-02T01:00:27;17.10;93.10
68051;DHT22;54839;51.364;7.246;2022-09-02T01:02:57;17.10;93.10
68051;DHT22;54839;51.364;7.246;2022-09-02T01:05:26;17.10;93.00
68051;DHT22;54839;51.364;7.246;2022-09-02T01:07:55;17.00;93.00
68051;DHT22;54839;51.364;7.246;2022-09-02T01:10:28;17.10;93.20
68051;DHT22;54839;51.364;7.246;2022-09-02T01:12:56;17.10;93.10
68051;DHT22;54839;51.364;7.246;2022-09-02T01:15:23;17.10;93.20
68051;DHT22;54839;51.364;7.246;2022-09-02T01:17:50;17.00;93.20
68051;DHT22;54839;51.364;7.246;2022-09-02T01:20:20;17.00;93.10
68051;DHT22;54839;51.364;7.246;2022-09-02T01:22:46;17.00;93.20
68051;DHT22;54839;51.364;7.246;2022-09-02T01:25:19;16.90;93.30
68051;DHT22;54839;51.364;7.246;2022-09-02T01:27:45;16.90;93.30
68051;DHT22;54839;51.364;7.246;2022-09-02T01:30:19;16.90;93.40
68051;DHT22;54839;51.364;7.246;2022-09-02T01:32:46;16.80;93.40
68051;DHT22;54839;51.364;7.246;2022-09-02T01:35:12;16.70;93.50
68051;DHT22;54839;51.364;7.246;2022-09-02T01:37:38;16.80;93.70
68051;DHT22;54839;51.364;7.246;2022-09-02T01:40:09;16.80;93.60
68051;DHT22;54839;51.364;7.246;2022-09-02T01:42:36;16.70;93.70
68051;DHT22;54839;51.364;7.246;2022-09-02T01:45:03;16.80;93.80
68051;DHT22;54839;51.364;7.246;2022-09-02T01:47:30;16.80;93.80
68051;DHT22;54839;51.364;7.246;2022-09-02T01:49:56;16.70;93.80
68051;DHT22;54839;51.364;7.246;2022-09-02T01:52:23;16.70;93.90
68051;DHT22;54839;51.364;7.246;2022-09-02T01:54:49;16.80;94.10
68051;DHT22;54839;51.364;7.246;2022-09-02T01:57:15;16.60;94.10
68051;DHT22;54839;51.364;7.246;2022-09-02T01:59:41;16.60;94.00
68051;DHT22;54839;51.364;7.246;2022-09-02T02:02:11;16.60;94.20
68051;DHT22;54839;51.364;7.246;2022-09-02T02:04:37;16.60;94.20
68051;DHT22;54839;51.364;7.246;2022-09-02T02:07:04;16.70;94.40
68051;DHT22;54839;51.364;7.246;2022-09-02T02:09:30;16.50;94.30
68051;DHT22;54839;51.364;7.246;2022-09-02T02:11:56;16.60;94.30
68051;DHT22;54839;51.364;7.246;2022-09-02T02:14:22;16.60;94.50
68051;DHT22;54839;51.364;7.246;2022-09-02T02:16:48;16.60;94.40
68051;DHT22;54839;51.364;7.246;2022-09-02T02:19:14;16.60;94.40
68051;DHT22;54839;51.364;7.246;2022-09-02T02:21:40;16.60;94.60
68051;DHT22;54839;51.364;7.246;2022-09-02T02:24:06;16.60;94.50
68051;DHT22;54839;51.364;7.246;2022-09-02T02:26:33;16.50;94.40
68051;DHT22;54839;51.364;7.246;2022-09-02T02:28:59;16.60;94.70
68051;DHT22;54839;51.364;7.246;2022-09-02T02:31:25;16.50;94.60
68051;DHT22;54839;51.364;7.246;2022-09-02T02:33:52;16.40;94.80
68051;DHT22;54839;51.364;7.246;2022-09-02T02:36:18;16.50;94.80
68051;DHT22;54839;51.364;7.246;2022-09-02T02:38:44;16.50;94.90
68051;DHT22;54839;51.364;7.246;2022-09-02T02:41:12;16.40;94.80
68051;DHT22;54839;51.364;7.246;2022-09-02T02:43:38;16.30;95.00
68051;DHT22;54839;51.364;7.246;2022-09-02T02:46:05;16.30;95.30
68051;DHT22;54839;51.364;7.246;2022-09-02T02:48:33;16.30;95.40
68051;DHT22;54839;51.364;7.246;2022-09-02T02:50:59;16.20;95.40
68051;DHT22;54839;51.364;7.246;2022-09-02T02:53:25;16.10;95.70
68051;DHT22;54839;51.364;7.246;2022-09-02T02:55:54;16.00;95.70
68051;DHT22;54839;51.364;7.246;2022-09-02T02:58:20;16.00;96.00
68051;DHT22;54839;51.364;7.246;2022-09-02T03:00:46;16.00;96.00
68051;DHT22;54839;51.364;7.246;2022-09-02T03:03:13;15.90;96.10
68051;DHT22;54839;51.364;7.246;2022-09-02T03:05:43;15.90;96.60
68051;DHT22;54839;51.364;7.246;2022-09-02T03:08:10;15.90;96.60
68051;DHT22;54839;51.364;7.246;2022-09-02T03:10:37;15.80;97.10
68051;DHT22;54839;51.364;7.246;2022-09-02T03:13:04;15.90;97.10
68051;DHT22;54839;51.364;7.246;2022-09-02T03:15:30;15.80;97.00
68051;DHT22;54839;51.364;7.246;2022-09-02T03:17:56;15.80;97.30
68051;DHT22;54839;51.364;7.246;2022-09-02T03:20:23;15.80;97.30
68051;DHT22;54839;51.364;7.246;2022-09-02T03:22:49;15.70;97.30
68051;DHT22;54839;51.364;7.246;2022-09-02T03:25:19;15.80;97.50
68051;DHT22;54839;51.364;7.246;2022-09-02T03:27:45;15.70;97.60
68051;DHT22;54839;51.364;7.246;2022-09-02T03:30:18;15.60;97.70
68051;DHT22;54839;51.364;7.246;2022-09-02T03:32:44;15.70;98.00
68051;DHT22;54839;51.364;7.246;2022-09-02T03:35:13;15.60;98.00
68051;DHT22;54839;51.364;7.246;2022-09-02T03:37:39;15.70;98.40
68051;DHT22;54839;51.364;7.246;2022-09-02T03:40:08;15.50;98.50
68051;DHT22;54839;51.364;7.246;2022-09-02T03:42:34;15.60;98.60
68051;DHT22;54839;51.364;7.246;2022-09-02T03:45:00;15.60;98.50
68051;DHT22;54839;51.364;7.246;2022-09-02T03:47:25;15.60;98.80
68051;DHT22;54839;51.364;7.246;2022-09-02T03:49:54;15.60;98.90
68051;DHT22;54839;51.364;7.246;2022-09-02T03:52:20;15.70;98.90
68051;DHT22;54839;51.364;7.246;2022-09-02T03:54:46;15.70;99.30
68051;DHT22;54839;51.364;7.246;2022-09-02T03:57:11;15.80;99.50
68051;DHT22;54839;51.364;7.246;2022-09-02T03:59:37;15.80;99.20
68051;DHT22;54839;51.364;7.246;2022-09-02T04:02:03;15.70;99.10
68051;DHT22;54839;51.364;7.246;2022-09-02T04:04:29;15.70;99.40
68051;DHT22;54839;51.364;7.246;2022-09-02T04:06:55;15.70;99.50
68051;DHT22;54839;51.364;7.246;2022-09-02T04:09:21;15.60;99.90
68051;DHT22;54839;51.364;7.246;2022-09-02T04:11:47;15.70;99.90
68051;DHT22;54839;51.364;7.246;2022-09-02T04:14:13;15.60;99.90
68051;DHT22;54839;51.364;7.246;2022-09-02T04:16:39;15.50;99.90
68051;DHT22;54839;51.364;7.246;2022-09-02T04:19:06;15.40;99.90
68051;DHT22;54839;51.364;7.246;2022-09-02T04:21:36;15.30;99.90
68051;DHT22;54839;51.364;7.246;2022-09-02T04:24:04;15.30;99.90
68051;DHT22;54839;51.364;7.246;2022-09-02T04:26:30;15.40;99.90
68051;DHT22;54839;51.364;7.246;2022-09-02T04:28:55;15.30;99.90
68051;DHT22;54839;51.364;7.246;2022-09-02T04:31:23;15.30;99.90
68051;DHT22;54839;51.364;7.246;2022-09-02T04:33:50;15.40;99.90
68051;DHT22;54839;51.364;7.246;2022-09-02T04:36:17;15.30;99.90
68051;DHT22;54839;51.364;7.246;2022-09-02T04:38:44;15.30;99.90
68051;DHT22;54839;51.364;7.246;2022-09-02T04:41:16;15.20;99.90
68051;DHT22;54839;51.364;7.246;2022-09-02T04:43:42;15.40;99.90
68051;DHT22;54839;51.364;7.246;2022-09-02T04:46:11;15.30;99.90
68051;DHT22;54839;51.364;7.246;2022-09-02T04:48:37;15.30;99.90
68051;DHT22;54839;51.364;7.246;2022-09-02T04:51:13;15.20;99.90
68051;DHT22;54839;51.364;7.246;2022-09-02T04:53:41;15.40;99.90
68051;DHT22;54839;51.364;7.246;2022-09-02T04:56:08;15.50;99.90
68051;DHT22;54839;51.364;7.246;2022-09-02T04:58:35;15.60;99.90
68051;DHT22;54839;51.364;7.246;2022-09-02T05:01:09;15.80;99.90
68051;DHT22;54839;51.364;7.246;2022-09-02T05:03:36;15.80;99.90
68051;DHT22;54839;51.364;7.246;2022-09-02T05:06:07;16.10;99.90
68051;DHT22;54839;51.364;7.246;2022-09-02T05:08:33;16.10;99.90
68051;DHT22;54839;51.364;7.246;2022-09-02T05:11:09;16.10;99.90
68051;DHT22;54839;51.364;7.246;2022-09-02T05:13:35;16.30;99.90
68051;DHT22;54839;51.364;7.246;2022-09-02T05:16:01;16.30;99.90
68051;DHT22;54839;51.364;7.246;2022-09-02T05:18:27;16.30;99.90
68051;DHT22;54839;51.364;7.246;2022-09-02T05:20:52;16.40;99.90
68051;DHT22;54839;51.364;7.246;2022-09-02T05:23:18;16.40;99.90
68051;DHT22;54839;51.364;7.246;2022-09-02T05:25:44;16.40;99.90
68051;DHT22;54839;51.364;7.246;2022-09-02T05:28:10;16.40;99.90
68051;DHT22;54839;51.364;7.246;2022-09-02T05:30:38;16.50;99.90
68051;DHT22;54839;51.364;7.246;2022-09-02T05:33:04;16.60;99.90
68051;DHT22;54839;51.364;7.246;2022-09-02T05:35:30;16.60;99.90
68051;DHT22;54839;51.364;7.246;2022-09-02T05:37:56;16.60;99.90
68051;DHT22;54839;51.364;7.246;2022-09-02T05:40:23;16.80;99.90
68051;DHT22;54839;51.364;7.246;2022-09-02T05:42:48;16.80;99.90
68051;DHT22;54839;51.364;7.246;2022-09-02T05:45:14;16.80;99.90
68051;DHT22;54839;51.364;7.246;2022-09-02T05:47:40;16.90;99.90
68051;DHT22;54839;51.364;7.246;2022-09-02T05:50:06;17.00;99.90
68051;DHT22;54839;51.364;7.246;2022-09-02T05:52:33;17.00;99.90
68051;DHT22;54839;51.364;7.246;2022-09-02T05:54:59;17.00;99.90
68051;DHT22;54839;51.364;7.246;2022-09-02T05:57:25;17.10;99.90
68051;DHT22;54839;51.364;7.246;2022-09-02T05:59:52;17.20;99.90
68051;DHT22;54839;51.364;7.246;2022-09-02T06:02:23;17.10;99.90
68051;DHT22;54839;51.364;7.246;2022-09-02T06:04:50;17.20;99.90
68051;DHT22;54839;51.364;7.246;2022-09-02T06:07:18;17.40;99.90
68051;DHT22;54839;51.364;7.246;2022-09-02T06:09:44;17.40;99.90
68051;DHT22;54839;51.364;7.246;2022-09-02T06:12:11;17.60;99.90
68051;DHT22;54839;51.364;7.246;2022-09-02T06:14:38;17.60;99.90
68051;DHT22;54839;51.364;7.246;2022-09-02T06:17:04;17.80;99.90
68051;DHT22;54839;51.364;7.246;2022-09-02T06:19:30;18.00;99.90
68051;DHT22;54839;51.364;7.246;2022-09-02T06:21:58;18.00;99.90
68051;DHT22;54839;51.364;7.246;2022-09-02T06:24:25;18.00;99.90
68051;DHT22;54839;51.364;7.246;2022-09-02T06:26:52;18.00;99.90
68051;DHT22;54839;51.364;7.246;2022-09-02T06:29:19;17.90;99.90
68051;DHT22;54839;51.364;7.246;2022-09-02T06:31:46;18.10;99.90
68051;DHT22;54839;51.364;7.246;2022-09-02T06:34:14;18.30;99.90
68051;DHT22;54839;51.364;7.246;2022-09-02T06:36:42;18.50;99.80
68051;DHT22;54839;51.364;7.246;2022-09-02T06:39:11;18.70;99.50
68051;DHT22;54839;51.364;7.246;2022-09-02T06:41:40;18.80;99.20
68051;DHT22;54839;51.364;7.246;2022-09-02T06:44:08;18.80;99.00
68051;DHT22;54839;51.364;7.246;2022-09-02T06:46:37;18.80;98.90
68051;DHT22;54839;51.364;7.246;2022-09-02T06:49:04;18.80;98.90
68051;DHT22;54839;51.364;7.246;2022-09-02T06:51:39;18.70;99.20
68051;DHT22;54839;51.364;7.246;2022-09-02T06:54:07;18.80;99.10
68051;DHT22;54839;51.364;7.246;2022-09-02T06:56:34;18.90;98.90
68051;DHT22;54839;51.364;7.246;2022-09-02T06:59:01;19.00;98.70
68051;DHT22;54839;51.364;7.246;2022-09-02T07:01:29;18.90;98.60
68051;DHT22;54839;51.364;7.246;2022-09-02T07:03:56;18.90;98.90
68051;DHT22;54839;51.364;7.246;2022-09-02T07:06:43;19.00;98.90
68051;DHT22;54839;51.364;7.246;2022-09-02T07:09:10;19.10;98.80
68051;DHT22;54839;51.364;7.246;2022-09-02T07:11:37;19.10;98.90
68051;DHT22;54839;51.364;7.246;2022-09-02T07:14:03;19.40;98.60
68051;DHT22;54839;51.364;7.246;2022-09-02T07:16:32;19.40;98.60
68051;DHT22;54839;51.364;7.246;2022-09-02T07:18:58;19.50;98.50
68051;DHT22;54839;51.364;7.246;2022-09-02T07:21:26;19.60;98.10
68051;DHT22;54839;51.364;7.246;2022-09-02T07:23:59;19.70;97.70
68051;DHT22;54839;51.364;7.246;2022-09-02T07:26:25;19.90;97.90
68051;DHT22;54839;51.364;7.246;2022-09-02T07:28:51;20.00;97.40
68051;DHT22;54839;51.364;7.246;2022-09-02T07:31:17;20.10;97.40
68051;DHT22;54839;51.364;7.246;2022-09-02T07:33:44;20.30;97.10
68051;DHT22;54839;51.364;7.246;2022-09-02T07:36:11;20.30;96.70
68051;DHT22;54839;51.364;7.246;2022-09-02T07:38:37;20.20;96.90
68051;DHT22;54839;51.364;7.246;2022-09-02T07:41:03;20.30;96.90
68051;DHT22;54839;51.364;7.246;2022-09-02T07:43:30;20.30;96.50
68051;DHT22;54839;51.364;7.246;2022-09-02T07:45:57;20.30;96.30
68051;DHT22;54839;51.364;7.246;2022-09-02T07:48:23;20.40;96.20
68051;DHT22;54839;51.364;7.246;2022-09-02T07:50:49;20.30;96.20
68051;DHT22;54839;51.364;7.246;2022-09-02T07:53:15;20.30;96.20
68051;DHT22;54839;51.364;7.246;2022-09-02T07:55:42;20.50;96.30
68051;DHT22;54839;51.364;7.246;2022-09-02T07:58:09;20.40;96.00
68051;DHT22;54839;51.364;7.246;2022-09-02T08:00:36;20.70;96.10
68051;DHT22;54839;51.364;7.246;2022-09-02T08:03:02;20.70;96.00
68051;DHT22;54839;51.364;7.246;2022-09-02T08:05:29;20.70;95.70
68051;DHT22;54839;51.364;7.246;2022-09-02T08:07:55;21.00;95.70
68051;DHT22;54839;51.364;7.246;2022-09-02T08:10:21;21.30;95.40
68051;DHT22;54839;51.364;7.246;2022-09-02T08:12:50;21.50;95.20
68051;DHT22;54839;51.364;7.246;2022-09-02T08:15:16;21.50;95.10
68051;DHT22;54839;51.364;7.246;2022-09-02T08:17:45;21.50;95.10
68051;DHT22;54839;51.364;7.246;2022-09-02T08:20:12;21.40;94.70
68051;DHT22;54839;51.364;7.246;2022-09-02T08:22:39;21.60;94.80
68051;DHT22;54839;51.364;7.246;2022-09-02T08:25:06;21.80;94.30
68051;DHT22;54839;51.364;7.246;2022-09-02T08:27:33;21.80;94.20
68051;DHT22;54839;51.364;7.246;2022-09-02T08:29:59;22.00;93.80
68051;DHT22;54839;51.364;7.246;2022-09-02T08:32:27;22.10;93.60
68051;DHT22;54839;51.364;7.246;2022-09-02T08:34:52;22.50;93.30
68051;DHT22;54839;51.364;7.246;2022-09-02T08:37:18;22.80;92.30
68051;DHT22;54839;51.364;7.246;2022-09-02T08:39:46;22.90;92.10
68051;DHT22;54839;51.364;7.246;2022-09-02T08:42:30;23.00;92.10
68051;DHT22;54839;51.364;7.246;2022-09-02T08:45:04;23.10;92.00
68051;DHT22;54839;51.364;7.246;2022-09-02T08:47:32;23.20;91.60
68051;DHT22;54839;51.364;7.246;2022-09-02T08:50:03;23.10;91.20
68051;DHT22;54839;51.364;7.246;2022-09-02T08:52:38;23.10;91.10
68051;DHT22;54839;51.364;7.246;2022-09-02T08:55:11;23.20;90.80
68051;DHT22;54839;51.364;7.246;2022-09-02T08:57:41;22.90;90.50
68051;DHT22;54839;51.364;7.246;2022-09-02T09:00:09;22.90;90.90
68051;DHT22;54839;51.364;7.246;2022-09-02T09:02:55;22.90;91.10
68051;DHT22;54839;51.364;7.246;2022-09-02T09:16:37;23.10;87.50
68051;DHT22;54839;51.364;7.246;2022-09-02T09:19:14;23.00;88.30
68051;DHT22;54839;51.364;7.246;2022-09-02T09:21:40;23.00;87.40
68051;DHT22;54839;51.364;7.246;2022-09-02T09:24:14;22.90;87.50
68051;DHT22;54839;51.364;7.246;2022-09-02T09:26:43;22.90;87.20
68051;DHT22;54839;51.364;7.246;2022-09-02T09:29:09;22.90;87.40
68051;DHT22;54839;51.364;7.246;2022-09-02T09:31:35;23.00;87.10
68051;DHT22;54839;51.364;7.246;2022-09-02T09:36:48;23.20;86.40
68051;DHT22;54839;51.364;7.246;2022-09-02T09:39:18;23.40;86.70
68051;DHT22;54839;51.364;7.246;2022-09-02T09:41:45;23.70;86.70
68051;DHT22;54839;51.364;7.246;2022-09-02T09:44:33;24.00;85.80
68051;DHT22;54839;51.364;7.246;2022-09-02T09:47:00;24.30;82.40
68051;DHT22;54839;51.364;7.246;2022-09-02T09:49:26;24.50;81.80
68051;DHT22;54839;51.364;7.246;2022-09-02T09:51:54;24.50;81.20
68051;DHT22;54839;51.364;7.246;2022-09-02T09:54:19;24.70;80.50
68051;DHT22;54839;51.364;7.246;2022-09-02T09:56:45;25.00;78.60
68051;DHT22;54839;51.364;7.246;2022-09-02T09:59:41;25.20;76.10
68051;DHT22;54839;51.364;7.246;2022-09-02T10:02:27;25.30;73.60
68051;DHT22;54839;51.364;7.246;2022-09-02T10:05:10;25.40;71.00
68051;DHT22;54839;51.364;7.246;2022-09-02T10:07:42;25.70;70.60
68051;DHT22;54839;51.364;7.246;2022-09-02T10:10:15;25.80;69.40
68051;DHT22;54839;51.364;7.246;2022-09-02T10:12:48;26.10;67.40
68051;DHT22;54839;51.364;7.246;2022-09-02T10:15:42;26.30;67.60
68051;DHT22;54839;51.364;7.246;2022-09-02T10:18:08;25.80;65.50
68051;DHT22;54839;51.364;7.246;2022-09-02T10:21:06;25.70;66.40
68051;DHT22;54839;51.364;7.246;2022-09-02T10:26:48;25.10;63.80
68051;DHT22;54839;51.364;7.246;2022-09-02T10:39:57;25.50;60.70
68051;DHT22;54839;51.364;7.246;2022-09-02T10:45:21;25.30;59.60
68051;DHT22;54839;51.364;7.246;2022-09-02T10:57:21;24.90;58.70
68051;DHT22;54839;51.364;7.246;2022-09-02T10:59:31;24.90;58.20
68051;DHT22;54839;51.364;7.246;2022-09-02T11:02:12;24.90;57.30
68051;DHT22;54839;51.364;7.246;2022-09-02T11:04:48;25.00;57.20
68051;DHT22;54839;51.364;7.246;2022-09-02T11:07:20;25.00;58.00
68051;DHT22;54839;51.364;7.246;2022-09-02T11:09:58;25.10;58.50
68051;DHT22;54839;51.364;7.246;2022-09-02T11:12:46;25.20;59.80
68051;DHT22;54839;51.364;7.246;2022-09-02T11:20:46;25.90;58.80
68051;DHT22;54839;51.364;7.246;2022-09-02T11:26:20;25.80;56.70
68051;DHT22;54839;51.364;7.246;2022-09-02T11:28:54;26.00;57.10
68051;DHT22;54839;51.364;7.246;2022-09-02T11:31:37;26.00;57.10
68051;DHT22;54839;51.364;7.246;2022-09-02T11:34:11;26.40;56.70
68051;DHT22;54839;51.364;7.246;2022-09-02T11:36:42;26.40;55.90
68051;DHT22;54839;51.364;7.246;2022-09-02T11:39:34;26.90;55.50
68051;DHT22;54839;51.364;7.246;2022-09-02T11:42:38;27.00;53.60
68051;DHT22;54839;51.364;7.246;2022-09-02T11:48:04;26.60;54.70
68051;DHT22;54839;51.364;7.246;2022-09-02T11:50:57;26.60;55.80
68051;DHT22;54839;51.364;7.246;2022-09-02T11:53:29;26.70;54.70
68051;DHT22;54839;51.364;7.246;2022-09-02T11:56:06;26.50;54.40
68051;DHT22;54839;51.364;7.246;2022-09-02T11:58:43;26.50;56.10
68051;DHT22;54839;51.364;7.246;2022-09-02T12:01:18;26.60;55.90
68051;DHT22;54839;51.364;7.246;2022-09-02T12:04:34;26.30;55.50
68051;DHT22;54839;51.364;7.246;2022-09-02T12:06:34;26.20;54.80
68051;DHT22;54839;51.364;7.246;2022-09-02T12:09:06;26.30;54.00
68051;DHT22;54839;51.364;7.246;2022-09-02T12:11:47;26.50;53.80
68051;DHT22;54839;51.364;7.246;2022-09-02T12:17:05;26.40;52.60
68051;DHT22;54839;51.364;7.246;2022-09-02T12:24:56;26.40;52.70
68051;DHT22;54839;51.364;7.246;2022-09-02T12:27:26;26.20;52.70
68051;DHT22;54839;51.364;7.246;2022-09-02T12:29:53;26.40;52.60
68051;DHT22;54839;51.364;7.246;2022-09-02T12:35:12;26.30;51.70
68051;DHT22;54839;51.364;7.246;2022-09-02T12:40:40;26.50;51.70
68051;DHT22;54839;51.364;7.246;2022-09-02T12:43:35;26.50;52.20
68051;DHT22;54839;51.364;7.246;2022-09-02T12:54:44;28.10;52.70
68051;DHT22;54839;51.364;7.246;2022-09-02T12:57:17;29.70;48.50
68051;DHT22;54839;51.364;7.246;2022-09-02T12:59:45;30.80;48.10
68051;DHT22;54839;51.364;7.246;2022-09-02T13:15:50;32.00;45.90
68051;DHT22;54839;51.364;7.246;2022-09-02T13:29:49;34.50;42.80
68051;DHT22;54839;51.364;7.246;2022-09-02T13:32:22;36.00;41.90
68051;DHT22;54839;51.364;7.246;2022-09-02T13:34:50;35.00;39.60
68051;DHT22;54839;51.364;7.246;2022-09-02T13:37:42;35.70;39.10
68051;DHT22;54839;51.364;7.246;2022-09-02T13:40:22;36.10;39.60
68051;DHT22;54839;51.364;7.246;2022-09-02T13:43:00;36.90;39.20
68051;DHT22;54839;51.364;7.246;2022-09-02T13:45:30;37.30;37.30
68051;DHT22;54839;51.364;7.246;2022-09-02T13:48:06;37.20;37.80
68051;DHT22;54839;51.364;7.246;2022-09-02T13:50:32;37.50;37.60
68051;DHT22;54839;51.364;7.246;2022-09-02T13:53:03;38.40;36.30
68051;DHT22;54839;51.364;7.246;2022-09-02T13:55:30;39.60;36.10
68051;DHT22;54839;51.364;7.246;2022-09-02T13:58:01;39.90;35.40
68051;DHT22;54839;51.364;7.246;2022-09-02T14:00:39;39.40;35.00
68051;DHT22;54839;51.364;7.246;2022-09-02T14:03:08;39.40;33.20
68051;DHT22;54839;51.364;7.246;2022-09-02T14:05:37;37.30;32.30
68051;DHT22;54839;51.364;7.246;2022-09-02T14:08:07;37.10;34.40
68051;DHT22;54839;51.364;7.246;2022-09-02T14:10:36;37.00;35.10
68051;DHT22;54839;51.364;7.246;2022-09-02T14:13:03;37.80;34.40
68051;DHT22;54839;51.364;7.246;2022-09-02T14:15:32;39.00;33.30
68051;DHT22;54839;51.364;7.246;2022-09-02T14:20:59;37.90;33.00
68051;DHT22;54839;51.364;7.246;2022-09-02T14:23:27;35.50;34.80
68051;DHT22;54839;51.364;7.246;2022-09-02T14:26:03;34.10;36.40
68051;DHT22;54839;51.364;7.246;2022-09-02T14:28:33;32.30;38.40
68051;DHT22;54839;51.364;7.246;2022-09-02T14:31:01;31.00;39.50
68051;DHT22;54839;51.364;7.246;2022-09-02T14:33:43;30.00;40.90
68051;DHT22;54839;51.364;7.246;2022-09-02T14:46:28;34.10;38.20
68051;DHT22;54839;51.364;7.246;2022-09-02T14:49:06;35.20;35.90
68051;DHT22;54839;51.364;7.246;2022-09-02T14:54:10;37.20;35.00
68051;DHT22;54839;51.364;7.246;2022-09-02T14:56:50;37.70;34.10
68051;DHT22;54839;51.364;7.246;2022-09-02T14:59:16;35.70;35.50
68051;DHT22;54839;51.364;7.246;2022-09-02T15:01:48;32.70;37.40
68051;DHT22;54839;51.364;7.246;2022-09-02T15:04:16;31.80;38.20
68051;DHT22;54839;51.364;7.246;2022-09-02T15:06:43;34.80;36.00
68051;DHT22;54839;51.364;7.246;2022-09-02T15:09:09;36.80;34.00
68051;DHT22;54839;51.364;7.246;2022-09-02T15:11:39;36.50;34.00
68051;DHT22;54839;51.364;7.246;2022-09-02T15:14:05;36.80;34.00
68051;DHT22;54839;51.364;7.246;2022-09-02T15:16:31;34.90;34.90
68051;DHT22;54839;51.364;7.246;2022-09-02T15:18:57;30.90;36.90
68051;DHT22;54839;51.364;7.246;2022-09-02T15:21:27;32.00;37.60
68051;DHT22;54839;51.364;7.246;2022-09-02T15:23:53;34.80;35.60
68051;DHT22;54839;51.364;7.246;2022-09-02T15:26:20;36.90;34.20
68051;DHT22;54839;51.364;7.246;2022-09-02T15:28:45;38.70;32.80
68051;DHT22;54839;51.364;7.246;2022-09-02T15:31:11;38.30;32.70
68051;DHT22;54839;51.364;7.246;2022-09-02T15:33:38;37.50;33.00
68051;DHT22;54839;51.364;7.246;2022-09-02T15:36:11;37.70;32.80
68051;DHT22;54839;51.364;7.246;2022-09-02T15:38:38;38.10;31.90
68051;DHT22;54839;51.364;7.246;2022-09-02T15:41:19;38.40;31.80
68051;DHT22;54839;51.364;7.246;2022-09-02T15:43:46;38.60;32.00
68051;DHT22;54839;51.364;7.246;2022-09-02T15:48:46;37.10;32.80
68051;DHT22;54839;51.364;7.246;2022-09-02T15:51:13;38.30;32.00
68051;DHT22;54839;51.364;7.246;2022-09-02T15:53:40;37.50;31.40
68051;DHT22;54839;51.364;7.246;2022-09-02T15:56:14;37.40;31.80
68051;DHT22;54839;51.364;7.246;2022-09-02T15:58:40;36.20;32.50
68051;DHT22;54839;51.364;7.246;2022-09-02T16:01:06;36.10;33.70
68051;DHT22;54839;51.364;7.246;2022-09-02T16:03:31;34.30;34.20
68051;DHT22;54839;51.364;7.246;2022-09-02T16:06:02;33.50;35.40
68051;DHT22;54839;51.364;7.246;2022-09-02T16:08:27;33.70;35.10
68051;DHT22;54839;51.364;7.246;2022-09-02T16:10:53;34.20;35.30
68051;DHT22;54839;51.364;7.246;2022-09-02T16:13:19;34.60;34.90
68051;DHT22;54839;51.364;7.246;2022-09-02T16:15:45;35.00;35.10
68051;DHT22;54839;51.364;7.246;2022-09-02T16:18:11;34.10;34.60
68051;DHT22;54839;51.364;7.246;2022-09-02T16:20:36;33.30;35.10
68051;DHT22;54839;51.364;7.246;2022-09-02T16:23:02;34.00;34.90
68051;DHT22;54839;51.364;7.246;2022-09-02T16:25:27;34.30;34.50
68051;DHT22;54839;51.364;7.246;2022-09-02T16:27:54;34.70;34.60
68051;DHT22;54839;51.364;7.246;2022-09-02T16:30:21;35.00;33.20
68051;DHT22;54839;51.364;7.246;2022-09-02T16:32:47;35.00;33.50
68051;DHT22;54839;51.364;7.246;2022-09-02T16:35:15;35.00;33.40
68051;DHT22;54839;51.364;7.246;2022-09-02T16:37:41;34.10;34.10
68051;DHT22;54839;51.364;7.246;2022-09-02T16:40:07;34.10;33.90
68051;DHT22;54839;51.364;7.246;2022-09-02T16:42:33;34.80;34.50
68051;DHT22;54839;51.364;7.246;2022-09-02T16:44:58;35.50;33.30
68051;DHT22;54839;51.364;7.246;2022-09-02T16:47:24;35.40;34.20
68051;DHT22;54839;51.364;7.246;2022-09-02T16:49:51;34.30;34.30
68051;DHT22;54839;51.364;7.246;2022-09-02T16:52:16;32.80;35.20
68051;DHT22;54839;51.364;7.246;2022-09-02T16:54:42;32.60;36.10
68051;DHT22;54839;51.364;7.246;2022-09-02T16:57:08;31.30;37.30
68051;DHT22;54839;51.364;7.246;2022-09-02T16:59:34;29.30;38.80
68051;DHT22;54839;51.364;7.246;2022-09-02T17:01:59;28.50;39.80
68051;DHT22;54839;51.364;7.246;2022-09-02T17:04:25;28.30;40.50
68051;DHT22;54839;51.364;7.246;2022-09-02T17:06:51;28.00;41.10
68051;DHT22;54839;51.364;7.246;2022-09-02T17:09:16;27.50;41.70
68051;DHT22;54839;51.364;7.246;2022-09-02T17:11:42;27.30;42.20
68051;DHT22;54839;51.364;7.246;2022-09-02T17:14:11;27.10;42.50
68051;DHT22;54839;51.364;7.246;2022-09-02T17:16:39;27.10;42.90
68051;DHT22;54839;51.364;7.246;2022-09-02T17:19:05;27.10;43.30
68051;DHT22;54839;51.364;7.246;2022-09-02T17:21:42;26.50;43.60
68051;DHT22;54839;51.364;7.246;2022-09-02T17:24:10;26.20;44.50
68051;DHT22;54839;51.364;7.246;2022-09-02T17:26:39;26.00;44.50
68051;DHT22;54839;51.364;7.246;2022-09-02T17:29:13;26.00;44.80
68051;DHT22;54839;51.364;7.246;2022-09-02T17:31:41;25.70;45.20
68051;DHT22;54839;51.364;7.246;2022-09-02T17:34:08;25.50;45.10
68051;DHT22;54839;51.364;7.246;2022-09-02T17:36:36;25.30;45.40
68051;DHT22;54839;51.364;7.246;2022-09-02T17:39:14;25.30;45.70